createdAt,value
2023-05-23T00:00:15.520Z,14.10
2023-05-23T00:02:43.820Z,14.00
2023-05-23T00:05:10.700Z,13.80
2023-05-23T00:07:37.516Z,13.80
2023-05-23T00:10:04.898Z,13.70
2023-05-23T00:12:31.617Z,13.70
2023-05-23T00:14:58.334Z,13.70
2023-05-23T00:17:28.102Z,13.60
2023-05-23T00:19:56.104Z,13.60
2023-05-23T00:22:23.075Z,13.60
2023-05-23T00:24:49.849Z,13.50
2023-05-23T00:27:16.587Z,13.50
2023-05-23T00:29:43.291Z,13.40
2023-05-23T00:32:10.061Z,13.40
2023-05-23T00:34:37.710Z,13.50
2023-05-23T00:37:05.147Z,13.50
2023-05-23T00:39:31.927Z,13.40
2023-05-23T00:41:58.653Z,13.50
2023-05-23T00:44:26.201Z,13.50
2023-05-23T00:46:56.294Z,13.50
2023-05-23T00:49:24.354Z,13.50
2023-05-23T00:51:52.424Z,13.40
2023-05-23T00:54:24.442Z,13.30
2023-05-23T00:56:51.429Z,13.30
2023-05-23T00:59:18.432Z,13.40
2023-05-23T01:01:46.900Z,13.40
2023-05-23T01:04:14.781Z,13.20
2023-05-23T01:06:41.574Z,13.20
2023-05-23T01:09:09.679Z,13.10
2023-05-23T01:12:27.944Z,12.90
2023-05-23T01:15:06.523Z,12.80
2023-05-23T01:17:55.148Z,12.90
2023-05-23T01:20:24.173Z,12.90
2023-05-23T01:23:02.578Z,12.80
2023-05-23T01:26:13.223Z,12.80
2023-05-23T01:28:47.029Z,12.90
2023-05-23T01:31:15.919Z,12.90
2023-05-23T01:33:43.853Z,13.00
2023-05-23T01:36:14.273Z,12.80
2023-05-23T01:38:41.000Z,12.90
2023-05-23T01:41:07.756Z,13.10
2023-05-23T01:43:34.622Z,13.10
2023-05-23T01:46:02.212Z,13.20
2023-05-23T01:48:30.271Z,13.20
2023-05-23T01:50:58.863Z,13.20
2023-05-23T01:53:26.825Z,13.20
2023-05-23T01:55:54.192Z,13.30
2023-05-23T01:58:22.008Z,13.30
2023-05-23T02:00:48.914Z,13.30
2023-05-23T02:03:16.105Z,13.30
2023-05-23T02:05:43.314Z,13.40
2023-05-23T02:08:10.175Z,13.30
2023-05-23T02:10:38.218Z,13.20
2023-05-23T02:13:04.913Z,13.00
2023-05-23T02:15:31.708Z,12.90
2023-05-23T02:17:58.594Z,12.90
2023-05-23T02:20:25.921Z,12.90
2023-05-23T02:22:52.734Z,12.90
2023-05-23T02:25:19.569Z,12.90
2023-05-23T02:27:46.277Z,12.90
2023-05-23T02:30:13.467Z,12.80
2023-05-23T02:32:40.312Z,12.90
2023-05-23T02:35:09.033Z,13.00
2023-05-23T02:37:35.840Z,13.00
2023-05-23T02:40:07.530Z,12.90
2023-05-23T02:42:34.541Z,12.90
2023-05-23T02:45:01.697Z,12.90
2023-05-23T02:47:28.490Z,13.00
2023-05-23T02:49:55.389Z,13.00
2023-05-23T02:52:22.168Z,13.10
2023-05-23T02:54:48.999Z,13.00
2023-05-23T02:57:15.817Z,13.00
2023-05-23T02:59:42.695Z,12.90
2023-05-23T03:02:09.619Z,12.80
2023-05-23T03:04:38.149Z,12.80
2023-05-23T03:07:11.537Z,12.80
2023-05-23T03:09:44.081Z,12.90
2023-05-23T03:12:11.055Z,12.80
2023-05-23T03:14:38.064Z,12.70
2023-05-23T03:17:05.196Z,12.70
2023-05-23T03:19:34.155Z,12.70
2023-05-23T03:22:02.537Z,12.70
2023-05-23T03:24:29.438Z,12.70
2023-05-23T03:26:56.301Z,12.70
2023-05-23T03:29:23.905Z,12.80
2023-05-23T03:31:50.872Z,12.80
2023-05-23T03:34:18.015Z,12.90
2023-05-23T03:36:44.897Z,12.90
2023-05-23T03:39:12.435Z,12.90
2023-05-23T03:41:39.280Z,13.10
2023-05-23T03:44:06.363Z,13.10
2023-05-23T03:46:33.318Z,13.10
2023-05-23T03:49:00.452Z,13.10
2023-05-23T03:51:28.270Z,13.10
2023-05-23T03:53:55.390Z,13.10
2023-05-23T03:56:23.547Z,13.00
2023-05-23T03:58:50.952Z,13.00
2023-05-23T04:01:17.965Z,13.00
2023-05-23T04:03:47.085Z,13.10
2023-05-23T04:06:17.265Z,13.10
2023-05-23T04:08:46.293Z,13.10
2023-05-23T04:11:13.166Z,13.20
2023-05-23T04:13:42.786Z,13.20
2023-05-23T04:16:11.058Z,13.40
2023-05-23T04:18:39.303Z,13.40
2023-05-23T04:21:07.345Z,13.40
2023-05-23T04:23:38.492Z,13.40
2023-05-23T04:26:06.777Z,13.30
2023-05-23T04:28:35.923Z,13.30
2023-05-23T04:31:03.234Z,13.40
2023-05-23T04:33:34.234Z,13.50
2023-05-23T04:36:02.629Z,13.60
2023-05-23T04:38:29.415Z,13.70
2023-05-23T04:40:58.006Z,13.90
2023-05-23T04:43:46.040Z,14.00
2023-05-23T04:46:26.849Z,14.20
2023-05-23T04:49:17.103Z,14.30
2023-05-23T04:51:44.187Z,14.40
2023-05-23T04:54:21.495Z,14.60
2023-05-23T04:56:48.210Z,14.70
2023-05-23T04:59:17.882Z,14.80
2023-05-23T05:01:44.807Z,14.80
2023-05-23T05:04:13.009Z,14.90
2023-05-23T05:06:41.319Z,15.00
2023-05-23T05:09:09.210Z,15.10
2023-05-23T05:11:35.985Z,15.30
2023-05-23T05:14:03.290Z,15.40
2023-05-23T05:16:30.767Z,15.50
2023-05-23T05:18:57.732Z,15.50
2023-05-23T05:21:24.479Z,15.60
2023-05-23T05:23:51.525Z,15.50
2023-05-23T05:26:18.478Z,15.40
2023-05-23T05:28:45.278Z,15.50
2023-05-23T05:31:15.290Z,15.70
2023-05-23T05:33:45.766Z,15.60
2023-05-23T05:36:14.454Z,15.30
2023-05-23T05:38:41.774Z,15.50
2023-05-23T05:41:09.415Z,15.60
2023-05-23T05:43:39.978Z,15.80
2023-05-23T05:46:06.770Z,15.90
2023-05-23T05:48:34.173Z,16.10
2023-05-23T05:51:05.454Z,16.20
2023-05-23T05:53:33.717Z,16.00
2023-05-23T05:56:02.724Z,15.90
2023-05-23T05:58:30.741Z,15.90
2023-05-23T06:01:03.646Z,16.20
2023-05-23T06:03:30.603Z,16.30
2023-05-23T06:05:58.266Z,16.30
2023-05-23T06:08:25.350Z,16.50
2023-05-23T06:10:52.214Z,16.40
2023-05-23T06:13:18.949Z,16.50
2023-05-23T06:15:51.097Z,16.50
2023-05-23T06:18:17.886Z,16.60
2023-05-23T06:20:45.038Z,16.40
2023-05-23T06:23:15.461Z,16.50
2023-05-23T06:25:42.536Z,16.50
2023-05-23T06:28:09.308Z,16.50
2023-05-23T06:30:38.027Z,16.60
2023-05-23T06:33:05.352Z,16.70
2023-05-23T06:35:32.152Z,16.80
2023-05-23T06:38:01.134Z,16.90
2023-05-23T06:40:27.908Z,16.70
2023-05-23T06:42:55.731Z,16.70
2023-05-23T06:45:38.929Z,16.50
2023-05-23T06:48:05.940Z,16.50
2023-05-23T06:50:34.745Z,16.40
2023-05-23T06:53:01.684Z,16.50
2023-05-23T06:55:28.463Z,16.50
2023-05-23T06:57:57.454Z,16.30
2023-05-23T07:00:24.747Z,16.30
2023-05-23T07:03:07.073Z,16.30
2023-05-23T07:05:34.488Z,16.50
2023-05-23T07:08:01.642Z,16.40
2023-05-23T07:10:28.512Z,16.50
2023-05-23T07:13:02.275Z,16.50
2023-05-23T07:15:29.793Z,16.50
2023-05-23T07:18:06.111Z,16.60
2023-05-23T07:20:34.099Z,16.50
2023-05-23T07:23:09.702Z,16.70
2023-05-23T07:25:40.336Z,16.70
2023-05-23T07:28:15.643Z,16.60
2023-05-23T07:30:42.998Z,16.80
2023-05-23T07:33:09.845Z,16.90
2023-05-23T07:35:37.543Z,17.10
2023-05-23T07:38:05.359Z,17.20
2023-05-23T07:40:32.267Z,17.30
2023-05-23T07:43:00.149Z,17.40
2023-05-23T07:45:26.957Z,17.30
2023-05-23T07:47:54.066Z,17.20
2023-05-23T07:50:20.820Z,17.10
2023-05-23T07:52:51.235Z,16.90
2023-05-23T07:55:24.317Z,16.80
2023-05-23T07:57:56.399Z,16.90
2023-05-23T08:00:24.628Z,16.90
2023-05-23T08:02:57.041Z,16.90
2023-05-23T08:05:30.030Z,17.00
2023-05-23T08:07:57.826Z,16.80
2023-05-23T08:10:28.177Z,16.70
2023-05-23T08:13:00.518Z,16.70
2023-05-23T08:15:31.825Z,16.70
2023-05-23T08:18:07.643Z,16.60
2023-05-23T08:20:34.427Z,16.70
2023-05-23T08:23:01.929Z,17.10
2023-05-23T08:25:32.380Z,17.30
2023-05-23T08:28:01.115Z,17.30
2023-05-23T08:30:42.789Z,17.40
2023-05-23T08:33:09.841Z,17.60
2023-05-23T08:35:38.799Z,17.80
2023-05-23T08:38:09.661Z,17.80
2023-05-23T08:40:48.123Z,17.80
2023-05-23T08:43:15.143Z,17.90
2023-05-23T08:45:42.554Z,18.10
2023-05-23T08:48:10.191Z,18.20
2023-05-23T08:50:44.210Z,18.40
2023-05-23T08:53:20.129Z,18.70
2023-05-23T08:55:55.686Z,18.60
2023-05-23T08:58:29.247Z,18.90
2023-05-23T09:00:57.649Z,18.80
2023-05-23T09:03:27.411Z,18.80
2023-05-23T09:06:21.965Z,18.70
2023-05-23T09:08:49.184Z,18.80
2023-05-23T09:11:18.550Z,18.70
2023-05-23T09:13:45.836Z,18.60
2023-05-23T09:16:20.079Z,18.80
2023-05-23T09:18:50.973Z,19.00
2023-05-23T09:21:20.779Z,19.10
2023-05-23T09:23:56.084Z,19.10
2023-05-23T09:26:22.924Z,19.10
2023-05-23T09:28:49.790Z,18.80
2023-05-23T09:31:16.575Z,19.00
2023-05-23T09:33:50.245Z,18.90
2023-05-23T09:36:19.234Z,18.80
2023-05-23T09:38:48.872Z,18.70
2023-05-23T09:41:15.779Z,18.20
2023-05-23T09:43:53.391Z,17.60
2023-05-23T09:46:22.050Z,17.80
2023-05-23T09:48:52.047Z,18.10
2023-05-23T09:51:21.612Z,18.30
2023-05-23T09:53:49.131Z,18.60
2023-05-23T09:56:19.711Z,18.50
2023-05-23T09:58:50.787Z,18.40
2023-05-23T10:01:17.922Z,18.40
2023-05-23T10:03:48.879Z,18.40
2023-05-23T10:06:35.141Z,18.40
2023-05-23T10:09:06.108Z,18.20
2023-05-23T10:11:35.670Z,18.10
2023-05-23T10:14:07.601Z,18.20
2023-05-23T10:16:39.860Z,18.40
2023-05-23T10:19:38.582Z,18.50
2023-05-23T10:22:09.364Z,18.80
2023-05-23T10:24:36.776Z,19.10
2023-05-23T10:27:03.854Z,19.20
2023-05-23T10:29:31.373Z,19.40
2023-05-23T10:31:58.599Z,19.60
2023-05-23T10:34:34.616Z,19.60
2023-05-23T10:37:06.303Z,19.40
2023-05-23T10:39:46.457Z,19.40
2023-05-23T10:42:22.597Z,19.20
2023-05-23T10:44:49.348Z,19.00
2023-05-23T10:47:29.183Z,19.00
2023-05-23T10:49:55.998Z,19.10
2023-05-23T10:52:26.548Z,19.10
2023-05-23T10:54:54.744Z,19.20
2023-05-23T10:57:25.472Z,19.40
2023-05-23T10:59:52.305Z,19.50
2023-05-23T11:02:26.275Z,19.50
2023-05-23T11:05:22.715Z,19.30
2023-05-23T11:08:09.790Z,18.80
2023-05-23T11:10:56.143Z,18.60
2023-05-23T11:13:23.399Z,18.80
2023-05-23T11:15:50.828Z,18.90
2023-05-23T11:18:26.507Z,18.60
2023-05-23T11:20:54.659Z,18.20
2023-05-23T11:23:22.170Z,18.00
2023-05-23T11:25:53.829Z,17.80
2023-05-23T11:28:20.954Z,17.50
2023-05-23T11:30:49.610Z,17.20
2023-05-23T11:33:18.207Z,17.20
2023-05-23T11:35:49.601Z,17.30
2023-05-23T11:38:17.324Z,17.40
2023-05-23T11:40:46.334Z,17.40
2023-05-23T11:43:17.780Z,17.40
2023-05-23T11:45:46.759Z,17.40
2023-05-23T11:48:16.459Z,17.30
2023-05-23T11:50:51.315Z,17.10
2023-05-23T11:53:21.542Z,16.80
2023-05-23T11:55:54.361Z,16.50
2023-05-23T11:58:22.922Z,16.30
2023-05-23T12:00:49.896Z,16.40
2023-05-23T12:03:17.033Z,16.40
2023-05-23T12:05:45.475Z,16.30
2023-05-23T12:08:13.824Z,16.30
2023-05-23T12:10:51.294Z,16.50
2023-05-23T12:13:18.422Z,16.60
2023-05-23T12:15:45.249Z,16.90
2023-05-23T12:18:12.863Z,17.20
2023-05-23T12:20:41.931Z,17.40
2023-05-23T12:23:09.103Z,17.40
2023-05-23T12:25:42.516Z,17.40
2023-05-23T12:28:13.614Z,17.30
2023-05-23T12:30:43.491Z,17.30
2023-05-23T12:33:11.933Z,17.40
2023-05-23T12:35:43.025Z,17.60
2023-05-23T12:38:09.920Z,17.90
2023-05-23T12:40:36.648Z,18.30
2023-05-23T12:43:03.383Z,18.70
2023-05-23T12:45:34.990Z,19.20
2023-05-23T12:48:02.453Z,19.30
2023-05-23T12:50:29.768Z,19.30
2023-05-23T12:52:56.952Z,19.20
2023-05-23T12:55:23.674Z,19.40
2023-05-23T12:57:50.868Z,19.50
2023-05-23T13:00:19.312Z,19.00
2023-05-23T13:02:46.472Z,18.80
2023-05-23T13:05:13.305Z,18.80
2023-05-23T13:07:40.060Z,18.70
2023-05-23T13:10:07.380Z,18.70
2023-05-23T13:12:34.721Z,18.30
2023-05-23T13:15:01.521Z,17.90
2023-05-23T13:17:28.412Z,17.80
2023-05-23T13:19:55.139Z,17.80
2023-05-23T13:22:21.827Z,18.00
2023-05-23T13:24:48.527Z,18.20
2023-05-23T13:27:15.249Z,18.00
2023-05-23T13:29:42.232Z,17.90
2023-05-23T13:32:09.069Z,17.60
2023-05-23T13:34:37.472Z,17.30
2023-05-23T13:37:05.559Z,17.20
2023-05-23T13:39:32.280Z,16.90
2023-05-23T13:41:59.066Z,16.80
2023-05-23T13:44:25.848Z,16.70
2023-05-23T13:46:52.785Z,16.70
2023-05-23T13:49:19.561Z,16.50
2023-05-23T13:51:46.409Z,16.30
2023-05-23T13:54:13.835Z,15.90
2023-05-23T13:56:41.275Z,14.70
2023-05-23T13:59:08.002Z,14.20
2023-05-23T14:01:34.797Z,14.20
2023-05-23T14:04:01.650Z,13.90
2023-05-23T14:06:28.346Z,13.90
2023-05-23T14:08:55.839Z,14.10
2023-05-23T14:11:22.583Z,14.50
2023-05-23T14:13:49.291Z,14.80
2023-05-23T14:16:17.076Z,15.10
2023-05-23T14:18:45.185Z,15.40
2023-05-23T14:21:12.046Z,15.50
2023-05-23T14:23:38.812Z,15.70
2023-05-23T14:26:05.832Z,15.70
2023-05-23T14:28:32.518Z,15.80
2023-05-23T14:30:59.291Z,15.60
2023-05-23T14:33:26.268Z,15.80
2023-05-23T14:35:53.196Z,15.70
2023-05-23T14:38:20.172Z,15.80
2023-05-23T14:40:47.286Z,16.00
2023-05-23T14:43:14.157Z,16.00
2023-05-23T14:45:41.147Z,16.10
2023-05-23T14:48:09.405Z,16.20
2023-05-23T14:50:36.497Z,16.10
2023-05-23T14:53:03.346Z,15.90
2023-05-23T14:55:30.051Z,15.80
2023-05-23T14:57:57.786Z,15.60
2023-05-23T15:00:24.965Z,15.40
2023-05-23T15:02:52.136Z,15.10
2023-05-23T15:05:18.928Z,14.80
2023-05-23T15:07:46.266Z,14.50
2023-05-23T15:10:13.012Z,14.40
2023-05-23T15:12:39.720Z,14.40
2023-05-23T15:15:06.929Z,14.30
2023-05-23T15:17:34.158Z,14.30
2023-05-23T15:20:01.883Z,14.40
2023-05-23T15:22:38.666Z,14.50
2023-05-23T15:25:08.229Z,14.60
2023-05-23T15:27:35.181Z,14.60
2023-05-23T15:30:03.212Z,14.70
2023-05-23T15:32:30.088Z,15.00
2023-05-23T15:34:56.875Z,15.30
2023-05-23T15:37:23.583Z,15.40
2023-05-23T15:39:50.311Z,15.40
2023-05-23T15:42:16.992Z,15.20
2023-05-23T15:44:43.750Z,15.20
2023-05-23T15:47:11.214Z,15.30
2023-05-23T15:49:37.946Z,15.30
2023-05-23T15:52:04.897Z,15.20
2023-05-23T15:54:31.611Z,15.10
2023-05-23T15:56:58.317Z,15.30
2023-05-23T15:59:25.010Z,15.40
2023-05-23T16:01:51.782Z,15.50
2023-05-23T16:04:18.633Z,15.60
2023-05-23T16:06:45.440Z,15.70
2023-05-23T16:09:12.186Z,15.60
2023-05-23T16:11:38.955Z,15.60
2023-05-23T16:14:06.391Z,15.70
2023-05-23T16:16:33.185Z,16.00
2023-05-23T16:19:00.218Z,16.30
2023-05-23T16:21:26.999Z,16.30
2023-05-23T16:23:53.756Z,15.90
2023-05-23T16:26:20.926Z,16.10
2023-05-23T16:28:47.706Z,17.10
2023-05-23T16:31:15.657Z,17.60
2023-05-23T16:33:43.315Z,18.00
2023-05-23T16:36:10.041Z,17.40
2023-05-23T16:38:36.746Z,17.90
2023-05-23T16:41:03.617Z,18.40
2023-05-23T16:43:30.357Z,18.60
2023-05-23T16:45:57.139Z,18.40
2023-05-23T16:48:23.957Z,18.20
2023-05-23T16:50:50.760Z,17.80
2023-05-23T16:53:17.556Z,17.60
2023-05-23T16:55:45.924Z,17.60
2023-05-23T16:58:12.724Z,17.60
2023-05-23T17:00:39.616Z,17.50
2023-05-23T17:03:06.686Z,17.60
2023-05-23T17:05:34.382Z,17.40
2023-05-23T17:08:01.579Z,17.30
2023-05-23T17:10:28.470Z,17.20
2023-05-23T17:12:55.216Z,17.10
2023-05-23T17:15:47.787Z,17.10
2023-05-23T17:18:14.539Z,17.00
2023-05-23T17:20:41.243Z,17.00
2023-05-23T17:23:08.013Z,16.90
2023-05-23T17:25:34.724Z,16.90
2023-05-23T17:28:01.413Z,17.00
2023-05-23T17:30:28.285Z,17.30
2023-05-23T17:32:55.070Z,17.40
2023-05-23T17:35:23.316Z,17.40
2023-05-23T17:37:50.379Z,17.40
2023-05-23T17:40:17.556Z,17.40
2023-05-23T17:42:44.889Z,17.30
2023-05-23T17:45:11.865Z,17.20
2023-05-23T17:47:39.228Z,17.00
2023-05-23T17:50:07.222Z,17.00
2023-05-23T17:52:34.534Z,16.90
2023-05-23T17:55:01.769Z,16.90
2023-05-23T17:57:30.497Z,16.70
2023-05-23T17:59:57.666Z,16.70
2023-05-23T18:02:24.472Z,16.60
2023-05-23T18:04:51.540Z,16.50
2023-05-23T18:07:21.285Z,16.30
2023-05-23T18:09:48.610Z,16.10
2023-05-23T18:12:16.441Z,15.90
2023-05-23T18:14:43.652Z,15.90
2023-05-23T18:17:10.575Z,15.80
2023-05-23T18:19:37.550Z,15.70
2023-05-23T18:22:04.542Z,15.60
2023-05-23T18:24:31.283Z,15.50
2023-05-23T18:26:58.343Z,15.50
2023-05-23T18:29:25.087Z,15.40
2023-05-23T18:31:51.791Z,15.30
2023-05-23T18:34:18.684Z,15.20
2023-05-23T18:36:45.669Z,15.10
2023-05-23T18:39:12.571Z,15.10
2023-05-23T18:41:39.788Z,15.10
2023-05-23T18:44:06.484Z,15.00
2023-05-23T18:46:33.283Z,15.00
2023-05-23T18:49:00.150Z,14.90
2023-05-23T18:51:26.849Z,14.90
2023-05-23T18:53:53.569Z,14.90
2023-05-23T18:56:21.643Z,14.90
2023-05-23T18:58:49.891Z,14.80
2023-05-23T19:01:16.943Z,14.80
2023-05-23T19:03:45.678Z,14.80
2023-05-23T19:06:12.529Z,14.70
2023-05-23T19:08:40.884Z,14.80
2023-05-23T19:11:07.717Z,14.80
2023-05-23T19:13:34.552Z,14.80
2023-05-23T19:16:01.934Z,14.60
2023-05-23T19:18:28.740Z,14.70
2023-05-23T19:20:56.451Z,14.70
2023-05-23T19:23:23.238Z,14.70
2023-05-23T19:25:49.949Z,14.70
2023-05-23T19:28:17.005Z,14.60
2023-05-23T19:30:44.393Z,14.40
2023-05-23T19:33:11.494Z,14.30
2023-05-23T19:35:38.487Z,14.30
2023-05-23T19:38:05.742Z,14.30
2023-05-23T19:40:32.463Z,14.20
2023-05-23T19:42:59.172Z,14.10
2023-05-23T19:45:25.966Z,14.10
2023-05-23T19:47:52.667Z,13.90
2023-05-23T19:50:19.497Z,13.80
2023-05-23T19:52:46.202Z,13.70
2023-05-23T19:55:14.197Z,13.80
2023-05-23T19:57:41.911Z,13.90
2023-05-23T20:00:10.458Z,13.90
2023-05-23T20:02:37.369Z,13.90
2023-05-23T20:05:04.389Z,13.90
2023-05-23T20:07:31.237Z,14.00
2023-05-23T20:09:58.067Z,14.10
2023-05-23T20:12:25.084Z,14.10
2023-05-23T20:14:51.809Z,14.10
2023-05-23T20:17:18.586Z,14.00
2023-05-23T20:19:45.309Z,14.00
2023-05-23T20:22:12.017Z,14.00
2023-05-23T20:24:38.764Z,13.90
2023-05-23T20:27:06.726Z,13.90
2023-05-23T20:29:34.951Z,13.90
2023-05-23T20:32:02.187Z,13.90
2023-05-23T20:34:28.926Z,13.90
2023-05-23T20:36:55.821Z,13.90
2023-05-23T20:39:23.968Z,13.90
2023-05-23T20:41:50.767Z,13.60
2023-05-23T20:44:20.499Z,13.40
2023-05-23T20:46:47.538Z,13.30
2023-05-23T20:49:15.689Z,13.20
2023-05-23T20:51:43.280Z,13.10
2023-05-23T20:54:10.038Z,13.10
2023-05-23T20:56:36.860Z,13.00
2023-05-23T20:59:03.566Z,13.10
2023-05-23T21:01:30.433Z,13.20
2023-05-23T21:03:57.261Z,13.30
2023-05-23T21:06:23.949Z,13.30
2023-05-23T21:08:50.686Z,13.40
2023-05-23T21:11:17.377Z,13.40
2023-05-23T21:13:44.637Z,13.40
2023-05-23T21:16:14.301Z,13.10
2023-05-23T21:18:41.090Z,13.00
2023-05-23T21:21:07.832Z,13.00
2023-05-23T21:23:34.565Z,13.20
2023-05-23T21:26:01.341Z,13.30
2023-05-23T21:28:28.140Z,13.30
2023-05-23T21:30:55.382Z,13.20
2023-05-23T21:33:22.310Z,13.20
2023-05-23T21:35:49.263Z,13.20
2023-05-23T21:38:16.044Z,13.10
2023-05-23T21:40:43.002Z,13.00
2023-05-23T21:43:09.915Z,13.00
2023-05-23T21:45:36.613Z,13.20
2023-05-23T21:48:03.408Z,13.30
2023-05-23T21:50:30.265Z,13.30
2023-05-23T21:52:56.987Z,13.40
2023-05-23T21:55:23.882Z,13.40
2023-05-23T21:57:50.738Z,13.40
2023-05-23T22:00:19.705Z,13.40
2023-05-23T22:02:47.290Z,13.40
2023-05-23T22:05:14.170Z,13.40
2023-05-23T22:07:40.923Z,13.30
2023-05-23T22:10:08.161Z,13.40
2023-05-23T22:12:34.920Z,13.30
2023-05-23T22:15:01.667Z,13.30
2023-05-23T22:17:29.577Z,13.30
2023-05-23T22:19:57.987Z,13.30
2023-05-23T22:22:24.707Z,13.30
2023-05-23T22:24:51.798Z,13.30
2023-05-23T22:27:18.588Z,13.30
2023-05-23T22:29:45.452Z,13.20
2023-05-23T22:32:12.182Z,13.20
2023-05-23T22:34:38.918Z,13.20
2023-05-23T22:37:05.706Z,13.20
2023-05-23T22:39:32.465Z,13.20
2023-05-23T22:41:59.219Z,13.10
2023-05-23T22:44:26.173Z,13.10
2023-05-23T22:46:52.961Z,13.00
2023-05-23T22:49:22.211Z,13.00
2023-05-23T22:51:48.987Z,13.00
2023-05-23T22:54:15.691Z,13.00
2023-05-23T22:56:42.541Z,13.00
2023-05-23T22:59:09.331Z,12.90
2023-05-23T23:01:36.412Z,12.90
2023-05-23T23:04:03.216Z,12.80
2023-05-23T23:06:29.962Z,12.80
2023-05-23T23:08:56.769Z,12.80
2023-05-23T23:11:23.518Z,12.80
2023-05-23T23:13:50.293Z,12.80
2023-05-23T23:16:19.439Z,12.80
2023-05-23T23:18:47.083Z,12.70
2023-05-23T23:21:13.871Z,12.70
2023-05-23T23:23:40.880Z,12.60
2023-05-23T23:26:07.635Z,12.60
2023-05-23T23:28:34.417Z,12.60
2023-05-23T23:31:01.244Z,12.60
2023-05-23T23:33:28.100Z,12.50
2023-05-23T23:35:54.881Z,12.50
2023-05-23T23:38:21.631Z,12.40
2023-05-23T23:40:48.349Z,12.40
2023-05-23T23:43:15.166Z,12.40
2023-05-23T23:45:41.971Z,12.40
2023-05-23T23:48:08.805Z,12.40
2023-05-23T23:50:35.718Z,12.40
2023-05-23T23:53:02.432Z,12.30
2023-05-23T23:55:29.131Z,12.30
2023-05-23T23:57:56.109Z,12.30
